No particular awareness of the weather is required.    There are no Weather-warnings


Meteo18 Weather Cam more information Meteo18 Weather Cam


Thunder radar more information blitzortung!


Rain radar more information rain snow radar


Visit our other weather sites:

Template documentation
and downloads

And another site



Weather Underground History page Text

Daily Summary for February 11, 2017 Units:  English    Metric   Both
« Previous Day
Next Day »
Daily Weekly Monthly Yearly Custom
  High: Low: Average:
Temperature: TemperatureC °F -1.8 °F 0.2 °F
Dew Point: DewpointC °F -3.3 °F -1.9 °F
Humidity: Humidity % 74 % 85 %
Wind Speed: WindSpeedKMH mph 0.0 mph 4.1 mph
Wind Gust: WindSpeedGustKMH mph - -
Wind:- - South
Pressure: PressurehPa in 1018.2 in -
Precipitation: 0.0 in    
Historical Graphs
 
 
Tabular Data for February 11, 2017
Time Temperature Dew Point Pressure Wind Wind Speed Wind Gust Humidity Rainfall Rate (Hourly)
TemperatureC °F DewpointC °F PressurehPa in Calm     Humidity % HourlyPrecipMM in
00:02 1.6 °F 0.3 °F 1018.8 in NNW 6.4 mph 14.5 mph 91 % 0.0 in
00:12 1.5 °F 0.2 °F 1018.8 in North 4.8 mph 14.5 mph 91 % 0.0 in
00:17 1.4 °F 0.1 °F 1018.8 in NW 4.8 mph 14.5 mph 91 % 0.0 in
00:22 1.4 °F 0.1 °F 1019.2 in NNE 4.8 mph 14.5 mph 91 % 0.0 in
00:27 1.4 °F 0.1 °F 1019.2 in NNW 8.0 mph 14.5 mph 91 % 0.0 in
00:32 1.4 °F 0.1 °F 1019.2 in North 9.7 mph 11.3 mph 91 % 0.0 in
00:37 1.3 °F 0.0 °F 1019.2 in North 8.0 mph 12.9 mph 91 % 0.0 in
00:42 1.4 °F 0.1 °F 1019.2 in North 11.3 mph 14.5 mph 91 % 0.0 in
00:47 1.4 °F 0.1 °F 1019.2 in NE 3.2 mph 16.1 mph 91 % 0.0 in
00:57 1.3 °F 0.0 °F 1019.2 in NW 8.0 mph 19.3 mph 91 % 0.0 in
01:02 1.3 °F 0.0 °F 1019.2 in North 9.7 mph 19.3 mph 91 % 0.0 in
01:07 1.3 °F 0.0 °F 1019.2 in NNE 6.4 mph 19.3 mph 91 % 0.0 in
01:12 1.3 °F 0.0 °F 1019.2 in NNW 11.3 mph 17.7 mph 91 % 0.0 in
01:17 1.2 °F 0.0 °F 1019.2 in NNW 6.4 mph 16.1 mph 92 % 0.0 in
01:22 1.2 °F 0.0 °F 1019.2 in NNE 12.9 mph 16.1 mph 92 % 0.0 in
01:27 1.1 °F -0.1 °F 1019.2 in NNE 6.4 mph 17.7 mph 92 % 0.0 in
01:32 1.1 °F -0.1 °F 1019.2 in North 6.4 mph 17.7 mph 92 % 0.0 in
01:42 1.1 °F -0.1 °F 1019.2 in North 1.6 mph 16.1 mph 92 % 0.0 in
01:47 1.1 °F -0.1 °F 1019.2 in NNE 4.8 mph 14.5 mph 92 % 0.0 in
01:52 1.1 °F -0.1 °F 1019.2 in NW 8.0 mph 16.1 mph 92 % 0.0 in
01:57 1.0 °F -0.2 °F 1019.2 in NNW 4.8 mph 16.1 mph 92 % 0.0 in
02:02 1.0 °F -0.2 °F 1019.2 in NNW 3.2 mph 16.1 mph 92 % 0.0 in
02:07 1.0 °F -0.2 °F 1019.2 in NNW 4.8 mph 14.5 mph 92 % 0.0 in
02:17 0.9 °F -0.3 °F 1019.2 in North 16.1 mph 16.1 mph 92 % 0.0 in
02:22 0.9 °F -0.3 °F 1019.2 in NW 4.8 mph 17.7 mph 92 % 0.0 in
02:32 0.9 °F -0.3 °F 1019.2 in NNW 3.2 mph 17.7 mph 92 % 0.0 in
02:42 0.9 °F -0.3 °F 1019.2 in NNE 9.7 mph 12.9 mph 92 % 0.0 in
02:47 0.9 °F -0.3 °F 1019.2 in North 6.4 mph 14.5 mph 92 % 0.0 in
02:57 0.8 °F -0.4 °F 1019.2 in North 11.3 mph 19.3 mph 92 % 0.0 in
03:02 0.8 °F -0.4 °F 1019.2 in NNE 3.2 mph 19.3 mph 92 % 0.0 in
03:12 0.7 °F -0.5 °F 1019.2 in NNW 8.0 mph 14.5 mph 92 % 0.0 in
03:17 0.7 °F -0.5 °F 1018.8 in NNW 3.2 mph 9.7 mph 92 % 0.0 in
03:22 0.7 °F -0.5 °F 1018.8 in NNW 1.6 mph 9.7 mph 92 % 0.0 in
03:27 0.7 °F -0.5 °F 1018.8 in Calm   9.7 mph 92 % 0.0 in
03:32 0.6 °F -0.5 °F 1018.8 in ENE 1.6 mph 9.7 mph 92 % 0.0 in
03:37 0.6 °F -0.5 °F 1018.8 in NNW 1.6 mph 12.9 mph 92 % 0.0 in
03:42 0.6 °F -0.5 °F 1018.8 in NNW 1.6 mph 12.9 mph 92 % 0.0 in
03:47 0.5 °F -0.6 °F 1018.8 in NNW 6.4 mph 11.3 mph 92 % 0.0 in
03:52 0.5 °F -0.6 °F 1018.8 in NNE 11.3 mph 12.9 mph 92 % 0.0 in
03:57 0.4 °F -0.7 °F 1018.8 in North 1.6 mph 16.1 mph 92 % 0.0 in
04:02 0.4 °F -0.7 °F 1018.8 in NNW 6.4 mph 16.1 mph 92 % 0.0 in
04:12 0.4 °F -0.6 °F 1018.8 in North 6.4 mph 11.3 mph 93 % 0.0 in
04:17 0.4 °F -0.6 °F 1018.8 in NNW 1.6 mph 11.3 mph 93 % 0.0 in
04:22 0.3 °F -0.7 °F 1018.8 in North 6.4 mph 9.7 mph 93 % 0.0 in
04:27 0.2 °F -0.8 °F 1018.8 in NNW 4.8 mph 9.7 mph 93 % 0.0 in
04:32 0.1 °F -0.9 °F 1018.8 in NNW 4.8 mph 9.7 mph 93 % 0.0 in
04:37 0.1 °F -0.9 °F 1018.8 in North 3.2 mph 11.3 mph 93 % 0.0 in
04:42 0.0 °F -1.0 °F 1018.8 in NNW 4.8 mph 11.3 mph 93 % 0.0 in
04:47 0.0 °F -1.0 °F 1018.8 in North 6.4 mph 11.3 mph 93 % 0.0 in
04:52 0.0 °F -1.0 °F 1018.8 in NNW 3.2 mph 11.3 mph 93 % 0.0 in
04:57 0.0 °F -1.0 °F 1018.8 in NNE 6.4 mph 11.3 mph 93 % 0.0 in
05:02 0.0 °F -1.0 °F 1018.8 in NNW 6.4 mph 11.3 mph 93 % 0.0 in
05:07 0.1 °F -0.9 °F 1018.8 in NNW 1.6 mph 9.7 mph 93 % 0.0 in
05:12 0.1 °F -0.9 °F 1018.8 in NNW 3.2 mph 8.0 mph 93 % 0.0 in
05:17 0.0 °F -1.0 °F 1018.8 in NNW 4.8 mph 8.0 mph 93 % 0.0 in
05:22 -0.1 °F -1.1 °F 1018.8 in NNE 3.2 mph 9.7 mph 93 % 0.0 in
05:32 -0.1 °F -1.1 °F 1018.8 in NNW 3.2 mph 9.7 mph 93 % 0.0 in
05:37 -0.1 °F -1.1 °F 1018.8 in NNW 4.8 mph 9.7 mph 93 % 0.0 in
05:47 0.0 °F -1.0 °F 1018.8 in NNW 3.2 mph 9.7 mph 93 % 0.0 in
05:52 0.0 °F -1.0 °F 1018.8 in WNW 4.8 mph 9.7 mph 93 % 0.0 in
05:57 -0.1 °F -1.1 °F 1018.8 in NW 3.2 mph 9.7 mph 93 % 0.0 in
06:02 -0.1 °F -1.1 °F 1018.8 in NNW 8.0 mph 9.7 mph 93 % 0.0 in
06:12 -0.4 °F -1.5 °F 1018.8 in North 4.8 mph 12.9 mph 92 % 0.0 in
06:17 -0.6 °F -1.7 °F 1018.8 in North 14.5 mph 16.1 mph 92 % 0.0 in
06:22 -0.7 °F -2.0 °F 1018.8 in NW 6.4 mph 16.1 mph 91 % 0.0 in
06:27 -0.8 °F -2.4 °F 1018.8 in North 12.9 mph 16.1 mph 89 % 0.0 in
06:32 -0.8 °F -2.4 °F 1018.8 in North 6.4 mph 16.1 mph 89 % 0.0 in
06:37 -0.8 °F -2.4 °F 1019.2 in NNW 6.4 mph 16.1 mph 89 % 0.0 in
06:42 -0.9 °F -2.6 °F 1018.8 in NNW 3.2 mph 16.1 mph 88 % 0.0 in
06:47 -1.0 °F -2.9 °F 1018.8 in NE 6.4 mph 16.1 mph 87 % 0.0 in
06:52 -1.0 °F -2.7 °F 1019.2 in NW 4.8 mph 14.5 mph 88 % 0.0 in
07:02 -1.1 °F -3.0 °F 1018.8 in North 6.4 mph 14.5 mph 87 % 0.0 in
07:07 -1.2 °F -3.1 °F 1018.8 in NNE 14.5 mph 14.5 mph 87 % 0.0 in
07:12 -1.2 °F -3.1 °F 1019.2 in NNW 6.4 mph 14.5 mph 87 % 0.0 in
07:17 -1.2 °F -3.1 °F 1019.2 in NNW 3.2 mph 16.1 mph 87 % 0.0 in
07:22 -1.2 °F -3.1 °F 1019.2 in North 8.0 mph 16.1 mph 87 % 0.0 in
07:27 -1.2 °F -3.1 °F 1018.8 in NW 6.4 mph 16.1 mph 87 % 0.0 in
07:32 -1.3 °F -3.2 °F 1018.8 in North 11.3 mph 16.1 mph 87 % 0.0 in
07:37 -1.3 °F -3.2 °F 1019.2 in NNE 6.4 mph 16.1 mph 87 % 0.0 in
07:42 -1.3 °F -3.0 °F 1019.2 in NNW 6.4 mph 16.1 mph 88 % 0.0 in
07:47 -1.4 °F -3.1 °F 1019.2 in North 4.8 mph 17.7 mph 88 % 0.0 in
07:52 -1.4 °F -3.1 °F 1019.2 in NW 6.4 mph 17.7 mph 88 % 0.0 in
07:57 -1.4 °F -3.1 °F 1019.2 in North 6.4 mph 17.7 mph 88 % 0.0 in
08:02 -1.5 °F -3.2 °F 1019.2 in NNW 6.4 mph 16.1 mph 88 % 0.0 in
08:07 -1.5 °F -3.2 °F 1019.2 in NNE 16.1 mph 16.1 mph 88 % 0.0 in
08:12 -1.5 °F -3.2 °F 1019.2 in NNE 8.0 mph 14.5 mph 88 % 0.0 in
08:17 -1.6 °F -3.3 °F 1019.5 in Calm   17.7 mph 88 % 0.0 in
08:22 -1.5 °F -3.2 °F 1019.5 in North 1.6 mph 17.7 mph 88 % 0.0 in
08:32 -1.5 °F -3.2 °F 1019.5 in NNW 1.6 mph 12.9 mph 88 % 0.0 in
08:37 -1.6 °F -3.3 °F 1019.5 in North 3.2 mph 11.3 mph 88 % 0.0 in
08:42 -1.6 °F -3.3 °F 1019.5 in ENE 1.6 mph 11.3 mph 88 % 0.0 in
08:47 -1.6 °F -3.3 °F 1019.9 in NNW 8.0 mph 12.9 mph 88 % 0.0 in
08:52 -1.6 °F -3.3 °F 1019.5 in NNE 14.5 mph 14.5 mph 88 % 0.0 in
08:57 -1.6 °F -3.3 °F 1019.5 in NE 6.4 mph 16.1 mph 88 % 0.0 in
09:02 -1.6 °F -3.2 °F 1019.5 in NNE 9.7 mph 19.3 mph 89 % 0.0 in
09:07 -1.6 °F -3.2 °F 1019.5 in North 17.7 mph 19.3 mph 89 % 0.0 in
09:12 -1.7 °F -3.3 °F 1019.5 in NNW 8.0 mph 17.7 mph 89 % 0.0 in
09:17 -1.7 °F -3.3 °F 1019.5 in NNE 3.2 mph 20.9 mph 89 % 0.0 in
09:22 -1.7 °F -3.3 °F 1019.5 in ENE 3.2 mph 20.9 mph 89 % 0.0 in
09:27 -1.7 °F -3.1 °F 1019.5 in NNE 9.7 mph 17.7 mph 90 % 0.0 in
09:32 -1.7 °F -3.1 °F 1019.5 in NW 1.6 mph 14.5 mph 90 % 0.0 in
09:42 -1.8 °F -3.2 °F 1019.5 in North 6.4 mph 14.5 mph 90 % 0.0 in
09:47 -1.8 °F -3.2 °F 1019.5 in NNE 11.3 mph 14.5 mph 90 % 0.0 in
09:52 -1.7 °F -3.1 °F 1019.5 in NE 3.2 mph 17.7 mph 90 % 0.0 in
09:57 -1.7 °F -3.1 °F 1019.5 in NNE 3.2 mph 17.7 mph 90 % 0.0 in
10:02 -1.7 °F -3.1 °F 1019.5 in NNW 6.4 mph 17.7 mph 90 % 0.0 in
10:07 -1.6 °F -3.2 °F 1019.5 in NE 16.1 mph 16.1 mph 89 % 0.0 in
10:12 -1.6 °F -3.2 °F 1019.5 in North 8.0 mph 14.5 mph 89 % 0.0 in
10:17 -1.6 °F -3.2 °F 1019.9 in North 3.2 mph 16.1 mph 89 % 0.0 in
10:22 -1.5 °F -3.2 °F 1019.9 in NW 1.6 mph 16.1 mph 88 % 0.0 in
10:27 -1.4 °F -3.0 °F 1019.9 in NW 1.6 mph 14.5 mph 89 % 0.0 in
10:32 -1.4 °F -3.1 °F 1019.9 in NW 1.6 mph 8.0 mph 88 % 0.0 in
10:42 -1.3 °F -3.2 °F 1020.2 in North 1.6 mph 8.0 mph 87 % 0.0 in
10:47 -1.2 °F -3.1 °F 1019.9 in North 1.6 mph 8.0 mph 87 % 0.0 in
10:52 -1.1 °F -3.1 °F 1020.2 in North 1.6 mph 8.0 mph 86 % 0.0 in
10:57 -1.1 °F -3.0 °F 1019.9 in Calm   4.8 mph 87 % 0.0 in
11:02 -1.0 °F -2.9 °F 1019.9 in WNW 1.6 mph 4.8 mph 87 % 0.0 in
11:12 -0.9 °F -2.9 °F 1020.2 in Calm   6.4 mph 86 % 0.0 in
11:17 -0.9 °F -3.1 °F 1019.9 in NNW 4.8 mph 8.0 mph 85 % 0.0 in
11:22 -0.9 °F -3.1 °F 1019.9 in NNW 4.8 mph 9.7 mph 85 % 0.0 in
11:27 -0.7 °F -2.7 °F 1019.9 in NNW 3.2 mph 9.7 mph 86 % 0.0 in
11:32 -0.7 °F -2.9 °F 1019.9 in NNW 6.4 mph 9.7 mph 85 % 0.0 in
11:37 -0.6 °F -2.7 °F 1019.9 in NNW 1.6 mph 9.7 mph 86 % 0.0 in
11:42 -0.5 °F -2.7 °F 1019.9 in WNW 3.2 mph 9.7 mph 85 % 0.0 in
11:47 -0.6 °F -3.0 °F 1019.9 in NW 1.6 mph 9.7 mph 84 % 0.0 in
11:52 -0.6 °F -2.8 °F 1019.5 in North 4.8 mph 8.0 mph 85 % 0.0 in
11:57 -0.5 °F -2.9 °F 1019.9 in North 1.6 mph 8.0 mph 84 % 0.0 in
12:02 -0.3 °F -2.7 °F 1019.9 in NNW 6.4 mph 8.0 mph 84 % 0.0 in
12:12 -0.3 °F -2.8 °F 1019.9 in NE 3.2 mph 9.7 mph 83 % 0.0 in
12:17 -0.2 °F -2.6 °F 1019.5 in WNW 4.8 mph 9.7 mph 84 % 0.0 in
12:22 -0.2 °F -2.6 °F 1019.5 in NNW 1.6 mph 11.3 mph 84 % 0.0 in
12:27 -0.2 °F -2.6 °F 1019.5 in NE 3.2 mph 11.3 mph 84 % 0.0 in
12:32 -0.2 °F -2.7 °F 1019.5 in West 1.6 mph 6.4 mph 83 % 0.0 in
12:37 -0.2 °F -2.7 °F 1019.5 in Calm   4.8 mph 83 % 0.0 in
12:42 -0.1 °F -2.8 °F 1019.5 in Calm   4.8 mph 82 % 0.0 in
12:52 0.2 °F -2.3 °F 1019.9 in ENE 3.2 mph 3.2 mph 83 % 0.0 in
12:57 0.3 °F -2.6 °F 1019.5 in East 1.6 mph 4.8 mph 81 % 0.0 in
13:02 0.4 °F -2.3 °F 1019.5 in Calm   4.8 mph 82 % 0.0 in
13:12 0.7 °F -2.4 °F 1019.5 in Calm   4.8 mph 80 % 0.0 in
13:17 0.6 °F -2.3 °F 1019.5 in Calm   4.8 mph 81 % 0.0 in
13:22 0.7 °F -2.2 °F 1019.5 in Calm   4.8 mph 81 % 0.0 in
13:27 0.6 °F -2.5 °F 1019.5 in ENE 1.6 mph 4.8 mph 80 % 0.0 in
13:37 0.8 °F -2.3 °F 1019.2 in Calm   3.2 mph 80 % 0.0 in
13:42 0.9 °F -1.8 °F 1019.2 in ESE 1.6 mph 3.2 mph 82 % 0.0 in
13:47 1.1 °F -2.0 °F 1019.2 in Calm   1.6 mph 80 % 0.0 in
13:52 1.3 °F -1.8 °F 1019.2 in Calm   1.6 mph 80 % 0.0 in
13:57 1.6 °F -1.5 °F 1019.2 in Calm   1.6 mph 80 % 0.0 in
14:02 1.7 °F -1.4 °F 1018.8 in NNE 3.2 mph 3.2 mph 80 % 0.0 in
14:12 1.8 °F -1.5 °F 1018.8 in ENE 3.2 mph 6.4 mph 79 % 0.0 in
14:22 1.7 °F -1.7 °F 1018.8 in Calm   3.2 mph 78 % 0.0 in
14:27 1.7 °F -1.6 °F 1018.8 in Calm   3.2 mph 79 % 0.0 in
14:32 1.7 °F -1.7 °F 1018.8 in Calm   3.2 mph 78 % 0.0 in
14:42 1.9 °F -1.5 °F 1018.8 in Calm   4.8 mph 78 % 0.0 in
14:52 2.0 °F -1.4 °F 1018.5 in Calm   4.8 mph 78 % 0.0 in
14:57 2.2 °F -1.4 °F 1018.8 in Calm   3.2 mph 77 % 0.0 in
15:02 2.3 °F -1.3 °F 1018.8 in Calm   3.2 mph 77 % 0.0 in
15:07 2.2 °F -1.4 °F 1018.8 in SW 3.2 mph 4.8 mph 77 % 0.0 in
15:12 2.3 °F -1.3 °F 1018.8 in Calm   4.8 mph 77 % 0.0 in
15:17 2.3 °F -1.5 °F 1018.5 in Calm   4.8 mph 76 % 0.0 in
15:22 2.3 °F -1.3 °F 1018.5 in Calm   3.2 mph 77 % 0.0 in
15:27 2.3 °F -1.3 °F 1018.5 in Calm   3.2 mph 77 % 0.0 in
15:32 2.5 °F -1.1 °F 1018.5 in South 1.6 mph 4.8 mph 77 % 0.0 in
15:37 2.7 °F -1.1 °F 1018.2 in Calm   4.8 mph 76 % 0.0 in
15:42 2.7 °F -0.9 °F 1018.5 in SSE 3.2 mph 4.8 mph 77 % 0.0 in
15:47 2.8 °F -1.2 °F 1018.5 in Calm   4.8 mph 75 % 0.0 in
15:57 2.8 °F -1.2 °F 1018.2 in Calm   4.8 mph 75 % 0.0 in
16:02 2.8 °F -1.0 °F 1018.5 in Calm   4.8 mph 76 % 0.0 in
16:07 2.8 °F -1.2 °F 1018.5 in Calm   4.8 mph 75 % 0.0 in
16:12 2.6 °F -1.4 °F 1018.5 in Calm   1.6 mph 75 % 0.0 in
16:17 2.7 °F -1.1 °F 1018.2 in Calm   1.6 mph 76 % 0.0 in
16:22 2.8 °F -1.2 °F 1018.2 in WSW 1.6 mph 1.6 mph 75 % 0.0 in
16:32 2.6 °F -1.2 °F 1018.2 in Calm   4.8 mph 76 % 0.0 in
16:37 2.6 °F -1.4 °F 1018.2 in North 1.6 mph 4.8 mph 75 % 0.0 in
16:42 2.6 °F -1.4 °F 1018.5 in Calm   3.2 mph 75 % 0.0 in
16:47 2.5 °F -1.5 °F 1018.5 in NE 1.6 mph 3.2 mph 75 % 0.0 in
16:52 2.4 °F -1.6 °F 1018.2 in Calm   3.2 mph 75 % 0.0 in
16:57 2.4 °F -1.6 °F 1018.2 in Calm   3.2 mph 75 % 0.0 in
17:02 2.4 °F -1.4 °F 1018.5 in North 3.2 mph 3.2 mph 76 % 0.0 in
17:07 2.4 °F -1.8 °F 1018.5 in NNE 3.2 mph 4.8 mph 74 % 0.0 in
17:12 2.4 °F -1.8 °F 1018.5 in ENE 4.8 mph 9.7 mph 74 % 0.0 in
17:17 2.4 °F -1.6 °F 1018.5 in NNE 3.2 mph 9.7 mph 75 % 0.0 in
17:22 2.3 °F -1.7 °F 1018.5 in NNW 3.2 mph 9.7 mph 75 % 0.0 in
17:27 2.2 °F -1.6 °F 1018.5 in NNW 1.6 mph 8.0 mph 76 % 0.0 in
17:32 2.0 °F -1.8 °F 1018.5 in Calm   8.0 mph 76 % 0.0 in
17:42 1.7 °F -2.1 °F 1018.5 in NNW 3.2 mph 4.8 mph 76 % 0.0 in
17:47 1.6 °F -1.8 °F 1018.5 in NNE 3.2 mph 8.0 mph 78 % 0.0 in
17:57 1.3 °F -1.6 °F 1018.5 in North 1.6 mph 8.0 mph 81 % 0.0 in
18:07 1.1 °F -1.8 °F 1018.5 in NE 3.2 mph 12.9 mph 81 % 0.0 in
18:12 0.8 °F -1.9 °F 1018.5 in NNE 8.0 mph 12.9 mph 82 % 0.0 in
18:17 0.6 °F -1.8 °F 1018.5 in North 4.8 mph 12.9 mph 84 % 0.0 in
18:22 0.4 °F -1.8 °F 1018.8 in NNE 1.6 mph 16.1 mph 85 % 0.0 in
18:32 0.2 °F -2.2 °F 1018.5 in NNW 4.8 mph 14.5 mph 84 % 0.0 in
18:37 0.1 °F -2.1 °F 1018.5 in North 4.8 mph 9.7 mph 85 % 0.0 in
18:42 -0.1 °F -2.3 °F 1018.5 in NNW 4.8 mph 8.0 mph 85 % 0.0 in
18:47 -0.1 °F -2.3 °F 1018.8 in WNW 1.6 mph 9.7 mph 85 % 0.0 in
18:52 -0.2 °F -2.4 °F 1018.8 in NE 1.6 mph 9.7 mph 85 % 0.0 in
19:02 -0.3 °F -2.7 °F 1018.5 in NNW 1.6 mph 9.7 mph 84 % 0.0 in
19:12 -0.4 °F -2.6 °F 1018.5 in Calm   9.7 mph 85 % 0.0 in
19:17 -0.6 °F -2.8 °F 1018.5 in NE 4.8 mph 6.4 mph 85 % 0.0 in
19:22 -0.6 °F -2.7 °F 1018.5 in NNE 4.8 mph 8.0 mph 86 % 0.0 in
19:27 -0.6 °F -2.7 °F 1018.5 in NNE 4.8 mph 8.0 mph 86 % 0.0 in
19:32 -0.6 °F -2.7 °F 1018.5 in Calm   8.0 mph 86 % 0.0 in
19:37 -0.6 °F -2.7 °F 1018.5 in Calm   8.0 mph 86 % 0.0 in
19:42 -0.6 °F -2.7 °F 1018.8 in Calm   8.0 mph 86 % 0.0 in
19:47 -0.6 °F -2.7 °F 1018.8 in Calm   3.2 mph 86 % 0.0 in
19:52 -0.6 °F -2.7 °F 1018.8 in Calm   1.6 mph 86 % 0.0 in
19:57 -0.5 °F -2.6 °F 1018.8 in NE 3.2 mph 3.2 mph 86 % 0.0 in
20:02 -0.4 °F -2.6 °F 1018.5 in NNW 3.2 mph 4.8 mph 85 % 0.0 in
20:12 -0.3 °F -2.5 °F 1018.8 in Calm   6.4 mph 85 % 0.0 in
20:17 -0.2 °F -2.6 °F 1018.5 in NNW 1.6 mph 6.4 mph 84 % 0.0 in
20:22 -0.3 °F -2.7 °F 1018.8 in North 3.2 mph 6.4 mph 84 % 0.0 in
20:27 -0.3 °F -2.5 °F 1018.8 in NNW 1.6 mph 6.4 mph 85 % 0.0 in
20:32 -0.2 °F -2.6 °F 1018.8 in Calm   6.4 mph 84 % 0.0 in
20:37 -0.2 °F -2.4 °F 1018.8 in NE 1.6 mph 6.4 mph 85 % 0.0 in
20:42 -0.2 °F -2.4 °F 1018.8 in North 1.6 mph 6.4 mph 85 % 0.0 in
20:52 -0.2 °F -2.4 °F 1018.8 in Calm   4.8 mph 85 % 0.0 in
20:57 -0.2 °F -2.4 °F 1018.8 in Calm   4.8 mph 85 % 0.0 in
21:02 -0.2 °F -2.4 °F 1018.8 in NNE 1.6 mph 4.8 mph 85 % 0.0 in
21:12 -0.1 °F -2.2 °F 1018.8 in Calm   3.2 mph 86 % 0.0 in
21:17 -0.1 °F -2.3 °F 1018.8 in NNE 3.2 mph 3.2 mph 85 % 0.0 in
21:22 0.0 °F -2.4 °F 1018.8 in Calm   4.8 mph 84 % 0.0 in
21:32 0.1 °F -2.3 °F 1018.8 in NE 3.2 mph 8.0 mph 84 % 0.0 in
21:42 0.2 °F -2.3 °F 1018.8 in NNE 6.4 mph 11.3 mph 83 % 0.0 in
21:47 0.2 °F -2.5 °F 1018.8 in NE 4.8 mph 11.3 mph 82 % 0.0 in
21:52 0.2 °F -2.3 °F 1018.8 in Calm   11.3 mph 83 % 0.0 in
21:57 0.2 °F -2.3 °F 1018.8 in NNE 4.8 mph 11.3 mph 83 % 0.0 in
22:02 0.2 °F -2.3 °F 1018.8 in NNE 4.8 mph 11.3 mph 83 % 0.0 in
22:07 0.1 °F -2.3 °F 1018.8 in NNE 1.6 mph 11.3 mph 84 % 0.0 in
22:12 0.1 °F -2.4 °F 1018.8 in NNE 4.8 mph 9.7 mph 83 % 0.0 in
22:17 0.1 °F -2.4 °F 1018.8 in NNE 6.4 mph 11.3 mph 83 % 0.0 in
22:22 0.1 °F -2.3 °F 1018.8 in Calm   11.3 mph 84 % 0.0 in
22:27 0.1 °F -2.3 °F 1018.8 in NNE 3.2 mph 11.3 mph 84 % 0.0 in
22:32 0.1 °F -2.3 °F 1018.8 in NNE 4.8 mph 11.3 mph 84 % 0.0 in
22:37 0.1 °F -2.3 °F 1018.8 in NE 8.0 mph 9.7 mph 84 % 0.0 in
22:42 0.1 °F -2.3 °F 1018.5 in NNE 8.0 mph 9.7 mph 84 % 0.0 in
22:52 0.1 °F -2.3 °F 1018.5 in NE 3.2 mph 14.5 mph 84 % 0.0 in
22:57 0.1 °F -2.1 °F 1018.5 in NE 8.0 mph 14.5 mph 85 % 0.0 in
23:02 0.1 °F -2.3 °F 1018.5 in NE 6.4 mph 12.9 mph 84 % 0.0 in
23:07 0.1 °F -2.3 °F 1018.5 in NE 6.4 mph 12.9 mph 84 % 0.0 in
23:12 0.1 °F -2.1 °F 1018.5 in ENE 6.4 mph 12.9 mph 85 % 0.0 in
23:17 0.1 °F -2.3 °F 1018.5 in NNE 8.0 mph 12.9 mph 84 % 0.0 in
23:22 0.1 °F -2.3 °F 1018.5 in NE 6.4 mph 11.3 mph 84 % 0.0 in
23:27 0.2 °F -2.2 °F 1018.5 in NE 8.0 mph 11.3 mph 84 % 0.0 in
23:32 0.2 °F -2.2 °F 1018.5 in NE 9.7 mph 11.3 mph 84 % 0.0 in
23:37 0.1 °F -2.1 °F 1018.5 in NNE 4.8 mph 9.7 mph 85 % 0.0 in
23:42 0.2 °F -2.2 °F 1018.5 in NNW 4.8 mph 9.7 mph 84 % 0.0 in
23:47 0.2 °F -2.2 °F 1018.5 in NNE 8.0 mph 12.9 mph 84 % 0.0 in
23:52 0.1 °F -2.3 °F 1018.2 in NE 6.4 mph 14.5 mph 84 % 0.0 in
23:57 0.1 °F -2.1 °F 1018.2 in North 4.8 mph 14.5 mph 85 % 0.0 in
Meteo18
Compliments of Weather Underground - 4 mb

Script developed by  Jim McMurry - jmcmurry@mwt.net Adapted for the template by  Wim van der Kuil - Leuven-Template.eu

You find our weather info also at:

European Weather Network

Weather Underground

Equipment we use:

Weather-station
Davis Vue

Weather-program
Meteobridge

Weather-server
Raspberry PI 2 B+

Provider
1 and 1

Davis Vue

Meteobridge

Raspberry PI 2 B+

1 and 1